createdAt,value
2019-03-27T00:00:00.579Z,5.52
2019-03-27T00:02:31.333Z,5.59
2019-03-27T00:05:03.565Z,5.67
2019-03-27T00:07:34.329Z,5.70
2019-03-27T00:10:08.456Z,5.62
2019-03-27T00:12:39.323Z,5.70
2019-03-27T00:15:13.386Z,5.60
2019-03-27T00:17:43.187Z,5.81
2019-03-27T00:20:14.451Z,5.62
2019-03-27T00:22:44.925Z,5.64
2019-03-27T00:25:15.991Z,5.72
2019-03-27T00:27:46.361Z,5.66
2019-03-27T00:30:18.539Z,5.64
2019-03-27T00:32:49.439Z,5.68
2019-03-27T00:35:20.281Z,5.60
2019-03-27T00:37:51.011Z,5.60
2019-03-27T00:40:21.744Z,5.63
2019-03-27T00:42:52.528Z,5.74
2019-03-27T00:45:26.935Z,5.61
2019-03-27T00:47:55.687Z,5.58
2019-03-27T00:50:26.255Z,5.60
2019-03-27T00:52:58.733Z,5.66
2019-03-27T00:55:28.954Z,5.71
2019-03-27T00:57:59.946Z,5.65
2019-03-27T01:00:45.282Z,5.68
2019-03-27T01:03:16.063Z,5.60
2019-03-27T01:05:48.523Z,5.66
2019-03-27T01:08:19.413Z,5.62
2019-03-27T01:10:50.359Z,5.62
2019-03-27T01:13:21.161Z,5.72
2019-03-27T01:15:53.337Z,5.65
2019-03-27T01:18:24.158Z,5.60
2019-03-27T01:20:54.973Z,5.77
2019-03-27T01:23:25.935Z,5.76
2019-03-27T01:25:56.703Z,5.74
2019-03-27T01:28:27.175Z,5.61
2019-03-27T01:30:58.044Z,5.60
2019-03-27T01:33:28.841Z,5.66
2019-03-27T01:35:59.677Z,5.54
2019-03-27T01:38:30.531Z,5.50
2019-03-27T01:41:02.147Z,5.68
2019-03-27T01:43:33.054Z,5.60
2019-03-27T01:46:03.766Z,5.52
2019-03-27T01:48:34.622Z,5.65
2019-03-27T01:51:05.058Z,5.48
2019-03-27T01:53:35.790Z,5.56
2019-03-27T01:56:06.699Z,5.46
2019-03-27T01:58:40.343Z,5.52
2019-03-27T02:01:11.277Z,5.54
2019-03-27T02:03:42.103Z,5.54
2019-03-27T02:06:12.959Z,5.62
2019-03-27T02:08:46.417Z,5.57
2019-03-27T02:11:17.283Z,5.52
2019-03-27T02:13:47.985Z,5.67
2019-03-27T02:16:22.074Z,5.56
2019-03-27T02:18:52.604Z,5.66
2019-03-27T02:21:23.795Z,5.50
2019-03-27T02:23:55.263Z,5.68
2019-03-27T02:26:27.690Z,5.60
2019-03-27T02:28:58.551Z,5.58
2019-03-27T02:31:29.414Z,5.63
2019-03-27T02:34:00.319Z,5.64
2019-03-27T02:36:31.168Z,5.64
2019-03-27T02:39:02.170Z,5.56
2019-03-27T02:41:33.020Z,5.60
2019-03-27T02:44:03.905Z,5.64
2019-03-27T02:46:34.623Z,5.74
2019-03-27T02:49:05.553Z,5.78
2019-03-27T02:51:36.318Z,5.83
2019-03-27T02:54:08.262Z,5.92
2019-03-27T02:56:39.106Z,5.90
2019-03-27T02:59:12.985Z,5.90
2019-03-27T03:01:47.696Z,5.96
2019-03-27T03:04:16.206Z,5.91
2019-03-27T03:06:47.064Z,5.98
2019-03-27T03:09:17.799Z,5.96
2019-03-27T03:11:48.630Z,6.02
2019-03-27T03:14:19.077Z,5.94
2019-03-27T03:16:49.479Z,6.04
2019-03-27T03:19:20.336Z,6.04
2019-03-27T03:21:51.291Z,6.02
2019-03-27T03:24:22.214Z,6.02
2019-03-27T03:26:53.040Z,6.00
2019-03-27T03:29:23.867Z,6.14
2019-03-27T03:31:54.772Z,6.12
2019-03-27T03:34:25.695Z,6.19
2019-03-27T03:36:56.567Z,5.98
2019-03-27T03:39:27.419Z,6.18
2019-03-27T03:41:58.256Z,6.14
2019-03-27T03:44:28.802Z,6.10
2019-03-27T03:47:00.650Z,6.06
2019-03-27T03:49:31.671Z,6.12
2019-03-27T03:52:02.625Z,6.22
2019-03-27T03:54:33.557Z,6.10
2019-03-27T03:57:05.370Z,6.24
2019-03-27T03:59:37.710Z,6.08
2019-03-27T04:02:08.517Z,6.20
2019-03-27T04:04:41.738Z,6.48
2019-03-27T04:07:12.583Z,6.24
2019-03-27T04:09:43.588Z,6.07
2019-03-27T04:12:14.351Z,6.16
2019-03-27T04:14:45.279Z,6.26
2019-03-27T04:17:17.761Z,6.21
2019-03-27T04:19:48.656Z,6.30
2019-03-27T04:22:19.533Z,6.37
2019-03-27T04:24:49.958Z,6.28
2019-03-27T04:27:20.363Z,6.40
2019-03-27T04:29:51.112Z,6.33
2019-03-27T04:32:21.950Z,6.41
2019-03-27T04:34:52.466Z,6.32
2019-03-27T04:37:23.211Z,6.25
2019-03-27T04:39:53.968Z,6.34
2019-03-27T04:42:24.780Z,6.36
2019-03-27T04:44:55.509Z,6.36
2019-03-27T04:47:32.327Z,6.34
2019-03-27T04:49:58.715Z,6.29
2019-03-27T04:52:29.459Z,6.31
2019-03-27T04:55:00.404Z,6.37
2019-03-27T04:57:31.230Z,6.32
2019-03-27T05:00:02.107Z,6.48
2019-03-27T05:02:33.001Z,6.38
2019-03-27T05:05:05.212Z,6.33
2019-03-27T05:07:36.057Z,6.50
2019-03-27T05:10:07.424Z,6.23
2019-03-27T05:12:38.889Z,6.32
2019-03-27T05:15:09.956Z,6.38
2019-03-27T05:17:46.062Z,6.26
2019-03-27T05:20:13.578Z,6.32
2019-03-27T05:22:44.030Z,6.31
2019-03-27T05:25:14.830Z,6.31
2019-03-27T05:27:45.674Z,6.49
2019-03-27T05:30:19.616Z,6.36
2019-03-27T05:32:50.430Z,6.42
2019-03-27T05:35:21.260Z,6.36
2019-03-27T05:37:52.160Z,6.50
2019-03-27T05:40:23.070Z,6.60
2019-03-27T05:43:00.438Z,6.46
2019-03-27T05:45:26.850Z,6.60
2019-03-27T05:48:03.356Z,6.63
2019-03-27T05:50:34.458Z,6.72
2019-03-27T05:53:05.237Z,6.49
2019-03-27T05:55:36.235Z,6.52
2019-03-27T05:58:07.085Z,6.52
2019-03-27T06:00:38.082Z,6.60
2019-03-27T06:03:08.801Z,6.76
2019-03-27T06:05:39.924Z,6.60
2019-03-27T06:08:10.683Z,6.60
2019-03-27T06:10:41.682Z,6.68
2019-03-27T06:13:12.760Z,6.66
2019-03-27T06:15:45.149Z,6.71
2019-03-27T06:18:20.680Z,6.67
2019-03-27T06:20:51.726Z,6.71
2019-03-27T06:23:23.950Z,6.80
2019-03-27T06:25:54.783Z,6.81
2019-03-27T06:28:25.525Z,6.78
2019-03-27T06:30:56.354Z,6.80
2019-03-27T06:33:27.087Z,6.98
2019-03-27T06:35:58.178Z,6.86
2019-03-27T06:38:29.072Z,6.90
2019-03-27T06:40:59.896Z,6.98
2019-03-27T06:43:30.767Z,7.02
2019-03-27T06:46:01.545Z,7.08
2019-03-27T06:48:32.519Z,7.04
2019-03-27T06:51:03.105Z,7.11
2019-03-27T06:53:33.568Z,7.16
2019-03-27T06:56:04.217Z,7.38
2019-03-27T06:58:34.937Z,7.38
2019-03-27T07:01:05.819Z,7.41
2019-03-27T07:03:36.628Z,7.48
2019-03-27T07:06:07.534Z,7.38
2019-03-27T07:08:38.487Z,7.29
2019-03-27T07:11:10.991Z,7.23
2019-03-27T07:13:41.795Z,7.39
2019-03-27T07:16:12.684Z,7.47
2019-03-27T07:18:44.085Z,7.52
2019-03-27T07:21:14.933Z,7.62
2019-03-27T07:23:45.717Z,7.67
2019-03-27T07:26:16.551Z,7.74
2019-03-27T07:28:48.745Z,7.82
2019-03-27T07:31:21.319Z,7.72
2019-03-27T07:33:52.193Z,7.85
2019-03-27T07:36:23.037Z,7.63
2019-03-27T07:39:10.441Z,7.78
2019-03-27T07:41:31.691Z,7.72
2019-03-27T07:44:02.129Z,7.94
2019-03-27T07:46:32.978Z,7.92
2019-03-27T07:49:03.657Z,8.00
2019-03-27T07:51:34.395Z,8.01
2019-03-27T07:54:05.349Z,7.96
2019-03-27T07:56:36.386Z,7.93
2019-03-27T07:59:07.221Z,7.94
2019-03-27T08:01:37.719Z,7.87
2019-03-27T08:04:08.798Z,7.92
2019-03-27T08:06:39.798Z,7.92
2019-03-27T08:09:11.143Z,8.15
2019-03-27T08:11:43.172Z,8.06
2019-03-27T08:14:14.070Z,8.22
2019-03-27T08:16:44.867Z,8.28
2019-03-27T08:19:15.661Z,8.31
2019-03-27T08:21:46.487Z,8.18
2019-03-27T08:24:17.495Z,8.12
2019-03-27T08:26:51.234Z,8.24
2019-03-27T08:29:22.221Z,8.28
2019-03-27T08:31:53.121Z,8.18
2019-03-27T08:34:23.831Z,8.22
2019-03-27T08:36:54.581Z,8.18
2019-03-27T08:39:25.761Z,8.22
2019-03-27T08:41:56.201Z,8.08
2019-03-27T08:44:27.081Z,8.18
2019-03-27T08:46:58.127Z,8.42
2019-03-27T08:49:28.771Z,8.40
2019-03-27T08:51:59.842Z,8.42
2019-03-27T08:54:30.713Z,8.54
2019-03-27T08:57:01.491Z,8.50
2019-03-27T08:59:34.044Z,8.62
2019-03-27T09:02:05.374Z,8.71
2019-03-27T09:04:36.849Z,8.43
2019-03-27T09:07:07.713Z,8.55
2019-03-27T09:09:40.330Z,8.50
2019-03-27T09:12:10.739Z,8.76
2019-03-27T09:14:44.445Z,8.74
2019-03-27T09:17:14.423Z,8.75
2019-03-27T09:19:45.392Z,8.90
2019-03-27T09:22:15.838Z,9.08
2019-03-27T09:24:46.611Z,9.10
2019-03-27T09:27:17.486Z,9.16
2019-03-27T09:29:48.429Z,9.26
2019-03-27T09:32:19.432Z,9.17
2019-03-27T09:34:51.966Z,9.16
2019-03-27T09:37:24.469Z,9.30
2019-03-27T09:39:57.492Z,9.18
2019-03-27T09:42:28.063Z,9.14
2019-03-27T09:44:58.936Z,9.26
2019-03-27T09:47:29.836Z,9.37
2019-03-27T09:50:00.746Z,9.20
2019-03-27T09:52:31.611Z,9.11
2019-03-27T09:55:02.812Z,9.14
2019-03-27T09:57:55.588Z,9.27
2019-03-27T10:00:48.205Z,9.20
2019-03-27T10:03:19.192Z,9.05
2019-03-27T10:05:51.716Z,9.11
2019-03-27T10:08:22.826Z,9.10
2019-03-27T10:10:53.589Z,9.05
2019-03-27T10:13:26.052Z,9.20
2019-03-27T10:15:57.025Z,9.18
2019-03-27T10:18:29.300Z,9.34
2019-03-27T10:21:01.790Z,9.26
2019-03-27T10:23:32.988Z,9.46
2019-03-27T10:26:04.035Z,9.36
2019-03-27T10:28:36.064Z,9.52
2019-03-27T10:31:06.960Z,9.50
2019-03-27T10:33:38.938Z,9.51
2019-03-27T10:36:09.917Z,9.64
2019-03-27T10:38:42.482Z,9.64
2019-03-27T10:41:13.376Z,9.60
2019-03-27T10:43:44.354Z,9.62
2019-03-27T10:46:16.864Z,9.70
2019-03-27T10:48:52.948Z,9.85
2019-03-27T10:51:21.768Z,10.04
2019-03-27T10:53:52.768Z,10.06
2019-03-27T10:56:23.588Z,9.98
2019-03-27T10:58:54.564Z,10.34
2019-03-27T11:01:25.157Z,9.94
2019-03-27T11:03:56.127Z,9.99
2019-03-27T11:06:28.531Z,10.05
2019-03-27T11:09:01.026Z,9.98
2019-03-27T11:11:33.578Z,9.94
2019-03-27T11:14:04.731Z,10.08
2019-03-27T11:16:38.416Z,9.84
2019-03-27T11:19:09.400Z,9.69
2019-03-27T11:21:40.026Z,9.71
2019-03-27T11:24:11.120Z,9.88
2019-03-27T11:26:42.228Z,9.96
2019-03-27T11:29:12.986Z,10.02
2019-03-27T11:31:43.828Z,10.18
2019-03-27T11:34:14.750Z,10.27
2019-03-27T11:36:47.440Z,10.26
2019-03-27T11:39:18.346Z,10.35
2019-03-27T11:41:50.757Z,10.32
2019-03-27T11:44:21.588Z,10.40
2019-03-27T11:46:52.522Z,10.26
2019-03-27T11:49:24.663Z,10.13
2019-03-27T11:51:57.956Z,10.26
2019-03-27T11:54:28.729Z,10.49
2019-03-27T11:56:59.646Z,10.82
2019-03-27T11:59:30.083Z,10.68
2019-03-27T12:02:01.102Z,10.71
2019-03-27T12:04:32.265Z,10.74
2019-03-27T12:07:03.103Z,10.59
2019-03-27T12:09:33.868Z,10.61
2019-03-27T12:12:06.596Z,10.70
2019-03-27T12:14:37.443Z,10.79
2019-03-27T12:17:08.191Z,10.70
2019-03-27T12:19:38.740Z,10.86
2019-03-27T12:22:09.577Z,10.72
2019-03-27T12:24:40.499Z,10.80
2019-03-27T12:27:11.266Z,10.46
2019-03-27T12:29:44.717Z,10.56
2019-03-27T12:32:15.465Z,10.38
2019-03-27T12:34:46.404Z,10.27
2019-03-27T12:37:17.308Z,10.24
2019-03-27T12:39:48.249Z,10.41
2019-03-27T12:42:19.195Z,10.38
2019-03-27T12:44:50.184Z,10.41
2019-03-27T12:47:20.935Z,10.43
2019-03-27T12:49:52.110Z,10.32
2019-03-27T12:52:25.855Z,10.30
2019-03-27T12:54:56.738Z,10.26
2019-03-27T12:57:27.505Z,10.33
2019-03-27T12:59:59.073Z,10.55
2019-03-27T13:02:29.988Z,10.52
2019-03-27T13:05:03.854Z,10.41
2019-03-27T13:07:49.119Z,10.48
2019-03-27T13:10:08.191Z,10.40
2019-03-27T13:12:39.181Z,10.42
2019-03-27T13:15:10.356Z,10.54
2019-03-27T13:17:41.237Z,10.50
2019-03-27T13:20:15.598Z,10.45
2019-03-27T13:22:46.869Z,10.74
2019-03-27T13:25:17.924Z,10.71
2019-03-27T13:27:48.714Z,10.71
2019-03-27T13:30:19.575Z,10.73
2019-03-27T13:32:50.369Z,10.68
2019-03-27T13:35:21.431Z,10.58
2019-03-27T13:37:52.427Z,10.62
2019-03-27T13:40:25.832Z,10.75
2019-03-27T13:42:58.361Z,10.71
2019-03-27T13:45:29.405Z,10.56
2019-03-27T13:48:00.328Z,10.46
2019-03-27T13:50:32.715Z,10.67
2019-03-27T13:53:03.645Z,10.60
2019-03-27T13:55:35.282Z,10.84
2019-03-27T13:58:06.409Z,10.48
2019-03-27T14:00:37.507Z,10.66
2019-03-27T14:03:08.521Z,10.59
2019-03-27T14:05:40.929Z,10.48
2019-03-27T14:08:11.392Z,10.24
2019-03-27T14:10:42.148Z,9.86
2019-03-27T14:13:13.146Z,9.76
2019-03-27T14:15:44.106Z,9.78
2019-03-27T14:18:15.007Z,9.64
2019-03-27T14:20:45.814Z,9.63
2019-03-27T14:23:16.570Z,9.84
2019-03-27T14:25:47.326Z,9.58
2019-03-27T14:28:19.545Z,9.54
2019-03-27T14:30:55.139Z,9.56
2019-03-27T14:33:26.057Z,9.46
2019-03-27T14:35:57.131Z,9.52
2019-03-27T14:38:28.493Z,9.48
2019-03-27T14:41:01.843Z,9.41
2019-03-27T14:43:32.679Z,9.42
2019-03-27T14:46:04.827Z,9.47
2019-03-27T14:48:35.635Z,9.55
2019-03-27T14:51:06.771Z,9.62
2019-03-27T14:53:37.461Z,9.86
2019-03-27T14:56:09.904Z,9.85
2019-03-27T14:58:40.743Z,9.86
2019-03-27T15:01:11.645Z,10.06
2019-03-27T15:03:42.139Z,10.06
2019-03-27T15:06:13.010Z,10.12
2019-03-27T15:08:43.775Z,10.26
2019-03-27T15:11:14.277Z,10.36
2019-03-27T15:13:45.234Z,10.51
2019-03-27T15:16:16.153Z,10.66
2019-03-27T15:18:47.172Z,10.33
2019-03-27T15:21:17.971Z,10.59
2019-03-27T15:23:48.822Z,10.60
2019-03-27T15:26:19.344Z,10.51
2019-03-27T15:28:50.886Z,10.45
2019-03-27T15:31:22.296Z,10.52
2019-03-27T15:33:53.948Z,10.44
2019-03-27T15:36:25.076Z,10.48
2019-03-27T15:38:57.667Z,10.64
2019-03-27T15:41:28.084Z,10.64
2019-03-27T15:43:59.431Z,10.66
2019-03-27T15:46:30.445Z,10.70
2019-03-27T15:49:01.347Z,10.70
2019-03-27T15:51:32.271Z,10.78
2019-03-27T15:54:03.136Z,10.88
2019-03-27T15:56:33.969Z,11.04
2019-03-27T15:59:04.990Z,10.88
2019-03-27T16:01:35.964Z,11.16
2019-03-27T16:04:06.799Z,11.01
2019-03-27T16:06:37.689Z,10.92
2019-03-27T16:09:11.011Z,10.82
2019-03-27T16:11:41.875Z,10.96
2019-03-27T16:14:12.856Z,10.89
2019-03-27T16:16:57.866Z,10.91
2019-03-27T16:19:18.569Z,10.82
2019-03-27T16:21:49.516Z,10.95
2019-03-27T16:24:20.422Z,10.85
2019-03-27T16:27:03.839Z,10.76
2019-03-27T16:29:26.016Z,10.61
2019-03-27T16:31:57.130Z,10.60
2019-03-27T16:34:28.016Z,10.68
2019-03-27T16:36:58.868Z,10.76
2019-03-27T16:39:29.511Z,10.73
2019-03-27T16:42:00.350Z,10.68
2019-03-27T16:44:30.772Z,10.63
2019-03-27T16:47:01.595Z,10.72
2019-03-27T16:49:32.564Z,10.67
2019-03-27T16:52:03.381Z,10.68
2019-03-27T16:54:35.968Z,10.80
2019-03-27T16:57:08.043Z,10.73
2019-03-27T16:59:38.860Z,10.69
2019-03-27T17:02:09.670Z,10.64
2019-03-27T17:04:43.084Z,10.76
2019-03-27T17:07:13.996Z,10.69
2019-03-27T17:09:44.841Z,10.67
2019-03-27T17:12:15.606Z,10.71
2019-03-27T17:14:46.174Z,10.74
2019-03-27T17:17:17.059Z,10.68
2019-03-27T17:19:47.486Z,10.80
2019-03-27T17:22:19.642Z,10.60
2019-03-27T17:24:50.466Z,10.52
2019-03-27T17:27:21.376Z,10.56
2019-03-27T17:29:52.271Z,10.44
2019-03-27T17:32:25.029Z,10.65
2019-03-27T17:34:55.986Z,10.50
2019-03-27T17:37:26.826Z,10.50
2019-03-27T17:39:57.968Z,10.46
2019-03-27T17:42:28.912Z,10.48
2019-03-27T17:44:59.773Z,10.40
2019-03-27T17:47:30.782Z,10.58
2019-03-27T17:50:01.698Z,10.44
2019-03-27T17:52:32.560Z,10.44
2019-03-27T17:55:06.378Z,10.47
2019-03-27T17:57:37.300Z,10.37
2019-03-27T18:00:11.072Z,10.34
2019-03-27T18:02:44.031Z,10.56
2019-03-27T18:05:15.055Z,10.46
2019-03-27T18:07:45.902Z,10.38
2019-03-27T18:10:16.705Z,10.34
2019-03-27T18:12:47.468Z,10.24
2019-03-27T18:15:19.578Z,10.24
2019-03-27T18:17:54.685Z,10.24
2019-03-27T18:20:27.528Z,10.22
2019-03-27T18:22:59.172Z,10.27
2019-03-27T18:25:33.972Z,10.26
2019-03-27T18:28:06.658Z,10.22
2019-03-27T18:30:45.158Z,10.28
2019-03-27T18:33:17.992Z,10.21
2019-03-27T18:35:58.045Z,10.30
2019-03-27T18:38:29.195Z,10.36
2019-03-27T18:41:00.089Z,10.22
2019-03-27T18:43:32.806Z,10.08
2019-03-27T18:46:14.976Z,10.08
2019-03-27T18:48:40.753Z,10.19
2019-03-27T18:51:11.773Z,10.12
2019-03-27T18:53:42.805Z,10.00
2019-03-27T18:56:13.709Z,9.87
2019-03-27T18:58:44.635Z,9.82
2019-03-27T19:01:15.797Z,9.84
2019-03-27T19:03:48.400Z,9.74
2019-03-27T19:06:19.148Z,9.75
2019-03-27T19:08:50.010Z,9.71
2019-03-27T19:11:20.537Z,9.84
2019-03-27T19:13:51.031Z,9.88
2019-03-27T19:16:22.079Z,9.82
2019-03-27T19:18:53.112Z,9.76
2019-03-27T19:21:24.037Z,9.81
2019-03-27T19:24:12.596Z,9.81
2019-03-27T19:26:32.998Z,9.79
2019-03-27T19:29:04.418Z,9.85
2019-03-27T19:31:40.270Z,9.88
2019-03-27T19:34:11.753Z,9.90
2019-03-27T19:36:42.839Z,9.92
2019-03-27T19:39:13.817Z,9.86
2019-03-27T19:41:48.322Z,9.85
2019-03-27T19:44:19.230Z,9.87
2019-03-27T19:46:50.277Z,9.85
2019-03-27T19:49:21.085Z,9.84
2019-03-27T19:51:51.981Z,9.90
2019-03-27T19:54:27.325Z,9.98
2019-03-27T19:56:56.140Z,10.00
2019-03-27T19:59:27.099Z,9.92
2019-03-27T20:01:57.581Z,9.98
2019-03-27T20:04:28.784Z,9.94
2019-03-27T20:06:59.697Z,9.90
2019-03-27T20:09:30.465Z,9.87
2019-03-27T20:12:01.431Z,9.82
2019-03-27T20:14:32.402Z,9.82
2019-03-27T20:17:03.284Z,9.68
2019-03-27T20:19:34.224Z,9.67
2019-03-27T20:22:05.276Z,9.70
2019-03-27T20:24:41.117Z,9.66
2019-03-27T20:27:12.093Z,9.64
2019-03-27T20:29:43.015Z,9.74
2019-03-27T20:32:14.500Z,9.50
2019-03-27T20:34:45.467Z,9.57
2019-03-27T20:37:19.550Z,9.52
2019-03-27T20:39:50.523Z,9.49
2019-03-27T20:42:21.255Z,9.42
2019-03-27T20:44:52.338Z,9.37
2019-03-27T20:47:26.778Z,9.26
2019-03-27T20:50:00.918Z,9.20
2019-03-27T20:52:31.918Z,9.22
2019-03-27T20:55:05.467Z,9.12
2019-03-27T20:57:37.991Z,9.10
2019-03-27T21:00:12.512Z,9.16
2019-03-27T21:05:35.334Z,9.01
2019-03-27T21:08:10.898Z,9.12
2019-03-27T21:11:05.207Z,9.02
2019-03-27T21:16:27.973Z,8.98
2019-03-27T21:20:06.967Z,8.97
2019-03-27T21:22:08.048Z,9.02
2019-03-27T21:24:37.209Z,8.96
2019-03-27T21:27:07.609Z,8.95
2019-03-27T21:29:38.496Z,9.01
2019-03-27T21:32:11.084Z,8.90
2019-03-27T21:34:41.995Z,8.97
2019-03-27T21:37:15.625Z,9.04
2019-03-27T21:39:48.058Z,8.90
2019-03-27T21:42:18.547Z,8.78
2019-03-27T21:44:49.301Z,8.93
2019-03-27T21:47:20.213Z,8.90
2019-03-27T21:49:50.952Z,8.86
2019-03-27T21:52:22.014Z,8.87
2019-03-27T21:54:53.163Z,8.89
2019-03-27T21:57:36.547Z,8.88
2019-03-27T22:00:08.579Z,8.92
2019-03-27T22:02:39.461Z,8.90
2019-03-27T22:05:10.456Z,8.83
2019-03-27T22:07:41.418Z,8.86
2019-03-27T22:10:12.544Z,8.92
2019-03-27T22:12:46.946Z,8.95
2019-03-27T22:15:17.481Z,8.86
2019-03-27T22:17:48.647Z,8.87
2019-03-27T22:20:19.524Z,8.94
2019-03-27T22:22:50.615Z,8.84
2019-03-27T22:25:34.930Z,8.88
2019-03-27T22:27:53.933Z,8.91
2019-03-27T22:30:24.999Z,8.76
2019-03-27T22:32:56.238Z,8.78
2019-03-27T22:35:27.705Z,8.94
2019-03-27T22:38:00.104Z,8.83
2019-03-27T22:40:30.687Z,8.82
2019-03-27T22:43:01.407Z,8.86
2019-03-27T22:45:32.285Z,8.90
2019-03-27T22:48:03.790Z,8.86
2019-03-27T22:50:34.835Z,8.89
2019-03-27T22:53:05.863Z,8.84
2019-03-27T22:55:49.191Z,8.90
2019-03-27T22:58:13.141Z,8.88
2019-03-27T23:00:45.887Z,8.79
2019-03-27T23:03:18.396Z,8.80
2019-03-27T23:05:49.212Z,8.82
2019-03-27T23:08:22.662Z,8.86
2019-03-27T23:10:53.165Z,8.73
2019-03-27T23:13:24.105Z,8.78
2019-03-27T23:15:55.069Z,8.88
2019-03-27T23:18:26.073Z,8.84
2019-03-27T23:20:56.993Z,8.82
2019-03-27T23:23:27.867Z,8.86
2019-03-27T23:26:03.153Z,8.92
2019-03-27T23:28:33.098Z,8.89
2019-03-27T23:31:04.080Z,8.84
2019-03-27T23:33:35.123Z,8.82
2019-03-27T23:36:05.880Z,8.82
2019-03-27T23:38:36.704Z,8.82
2019-03-27T23:41:07.857Z,8.93
2019-03-27T23:43:38.621Z,8.83
2019-03-27T23:46:09.508Z,8.82
2019-03-27T23:48:39.951Z,8.79
2019-03-27T23:51:11.919Z,8.88
2019-03-27T23:53:42.793Z,8.79
2019-03-27T23:56:16.734Z,8.82
2019-03-27T23:58:46.194Z,8.86
